createdAt,value
2022-10-16T00:00:11.422Z,3.70
2022-10-16T00:02:39.094Z,3.40
2022-10-16T00:05:08.535Z,5.07
2022-10-16T00:07:36.311Z,3.47
2022-10-16T00:10:04.190Z,6.23
2022-10-16T00:12:31.819Z,4.43
2022-10-16T00:14:59.503Z,5.97
2022-10-16T00:17:27.141Z,5.53
2022-10-16T00:19:54.795Z,4.63
2022-10-16T00:22:24.130Z,4.90
2022-10-16T00:24:52.184Z,3.70
2022-10-16T00:27:19.894Z,6.97
2022-10-16T00:29:51.342Z,4.20
2022-10-16T00:32:19.071Z,3.83
2022-10-16T00:34:47.287Z,4.07
2022-10-16T00:37:15.410Z,4.93
2022-10-16T00:39:44.464Z,3.73
2022-10-16T00:42:17.599Z,5.00
2022-10-16T00:44:49.502Z,7.10
2022-10-16T00:47:23.251Z,4.40
2022-10-16T00:49:53.698Z,4.33
2022-10-16T00:52:21.628Z,5.03
2022-10-16T00:54:52.093Z,3.13
2022-10-16T00:57:20.708Z,4.97
2022-10-16T00:59:48.543Z,3.43
2022-10-16T01:02:18.037Z,4.97
2022-10-16T01:04:49.434Z,4.57
2022-10-16T01:07:26.687Z,5.27
2022-10-16T01:10:04.859Z,5.50
2022-10-16T01:12:45.498Z,4.07
2022-10-16T01:15:20.635Z,3.23
2022-10-16T01:17:53.812Z,4.00
2022-10-16T01:20:29.988Z,4.60
2022-10-16T01:23:14.672Z,3.57
2022-10-16T01:25:58.582Z,4.27
2022-10-16T01:28:32.445Z,4.70
2022-10-16T01:31:02.572Z,5.77
2022-10-16T01:33:37.076Z,5.47
2022-10-16T01:36:12.720Z,3.43
2022-10-16T01:38:42.310Z,4.80
2022-10-16T01:41:13.641Z,3.93
2022-10-16T01:43:45.810Z,7.10
2022-10-16T01:46:17.402Z,3.30
2022-10-16T01:48:45.022Z,3.40
2022-10-16T01:51:16.329Z,3.23
2022-10-16T01:53:49.553Z,3.93
2022-10-16T01:56:19.211Z,3.23
2022-10-16T01:58:53.923Z,3.90
2022-10-16T02:01:24.362Z,3.90
2022-10-16T02:03:55.187Z,3.20
2022-10-16T02:06:23.683Z,3.50
2022-10-16T02:08:51.472Z,3.10
2022-10-16T02:11:19.113Z,6.57
2022-10-16T02:13:53.317Z,5.83
2022-10-16T02:16:21.145Z,3.13
2022-10-16T02:18:48.966Z,3.77
2022-10-16T02:21:25.564Z,3.93
2022-10-16T02:24:02.079Z,3.40
2022-10-16T02:26:35.847Z,5.00
2022-10-16T02:29:08.918Z,4.60
2022-10-16T02:31:40.668Z,3.27
2022-10-16T02:34:09.925Z,4.53
2022-10-16T02:36:38.506Z,5.00
2022-10-16T02:39:07.600Z,3.40
2022-10-16T02:41:35.400Z,7.07
2022-10-16T02:44:04.642Z,5.40
2022-10-16T02:46:32.364Z,3.80
2022-10-16T02:49:00.054Z,3.93
2022-10-16T02:51:27.825Z,4.53
2022-10-16T02:53:55.456Z,6.57
2022-10-16T02:56:23.750Z,4.13
2022-10-16T02:58:51.416Z,4.40
2022-10-16T03:01:20.476Z,5.33
2022-10-16T03:03:48.154Z,4.10
2022-10-16T03:06:15.901Z,5.70
2022-10-16T03:08:43.563Z,4.63
2022-10-16T03:11:11.266Z,5.23
2022-10-16T03:13:38.995Z,5.07
2022-10-16T03:16:06.716Z,4.77
2022-10-16T03:18:35.794Z,6.13
2022-10-16T03:21:03.431Z,3.37
2022-10-16T03:26:03.655Z,4.67
2022-10-16T03:28:31.394Z,4.30
2022-10-16T03:30:59.086Z,5.23
2022-10-16T03:33:26.755Z,4.13
2022-10-16T03:35:56.598Z,4.77
2022-10-16T03:38:24.318Z,7.03
2022-10-16T03:40:52.219Z,5.57
2022-10-16T03:43:19.831Z,4.50
2022-10-16T03:45:47.618Z,5.07
2022-10-16T03:48:15.256Z,5.57
2022-10-16T03:50:43.074Z,3.80
2022-10-16T03:53:12.360Z,4.33
2022-10-16T03:55:40.019Z,4.70
2022-10-16T03:58:07.632Z,4.80
2022-10-16T04:00:35.358Z,4.33
2022-10-16T04:03:03.071Z,4.23
2022-10-16T04:05:30.700Z,4.30
2022-10-16T04:07:58.335Z,5.00
2022-10-16T04:10:27.454Z,4.57
2022-10-16T04:12:56.921Z,4.20
2022-10-16T04:15:25.430Z,4.07
2022-10-16T04:17:53.792Z,6.17
2022-10-16T04:20:21.551Z,4.53
2022-10-16T04:22:49.208Z,6.47
2022-10-16T04:25:16.879Z,6.57
2022-10-16T04:27:46.245Z,5.53
2022-10-16T04:30:14.213Z,4.43
2022-10-16T04:32:41.954Z,5.30
2022-10-16T04:35:10.570Z,3.50
2022-10-16T04:37:38.199Z,5.37
2022-10-16T04:40:06.872Z,6.13
2022-10-16T04:42:34.561Z,3.63
2022-10-16T04:45:03.963Z,4.73
2022-10-16T04:47:31.642Z,6.23
2022-10-16T04:49:59.777Z,4.67
2022-10-16T04:52:27.461Z,4.23
2022-10-16T04:54:56.502Z,4.30
2022-10-16T04:57:24.485Z,5.33
2022-10-16T04:59:52.419Z,3.63
2022-10-16T05:02:21.739Z,3.60
2022-10-16T05:04:49.483Z,4.57
2022-10-16T05:07:17.512Z,7.80
2022-10-16T05:09:45.177Z,3.60
2022-10-16T05:12:12.936Z,4.37
2022-10-16T05:14:40.555Z,3.80
2022-10-16T05:17:08.288Z,3.90
2022-10-16T05:19:37.366Z,7.73
2022-10-16T05:22:05.326Z,4.23
2022-10-16T05:24:32.999Z,4.30
2022-10-16T05:27:00.669Z,4.67
2022-10-16T05:29:28.339Z,4.23
2022-10-16T05:31:56.020Z,4.53
2022-10-16T05:34:23.675Z,4.63
2022-10-16T05:36:52.719Z,4.47
2022-10-16T05:39:20.627Z,5.93
2022-10-16T05:41:48.299Z,4.20
2022-10-16T05:44:15.955Z,4.60
2022-10-16T05:46:43.642Z,4.20
2022-10-16T05:49:11.388Z,4.00
2022-10-16T05:51:39.009Z,4.43
2022-10-16T05:54:08.059Z,5.53
2022-10-16T05:56:35.947Z,4.10
2022-10-16T05:59:05.519Z,6.70
2022-10-16T06:01:33.479Z,4.90
2022-10-16T06:04:01.821Z,4.67
2022-10-16T06:06:30.625Z,4.60
2022-10-16T06:09:00.674Z,4.80
2022-10-16T06:11:32.001Z,4.20
2022-10-16T06:14:02.779Z,3.83
2022-10-16T06:16:30.771Z,4.07
2022-10-16T06:19:00.136Z,5.17
2022-10-16T06:21:29.256Z,3.87
2022-10-16T06:23:59.237Z,3.93
2022-10-16T06:26:29.813Z,4.13
2022-10-16T06:28:58.578Z,8.17
2022-10-16T06:31:28.536Z,3.80
2022-10-16T06:33:57.203Z,3.83
2022-10-16T06:36:26.226Z,5.30
2022-10-16T06:38:53.895Z,6.50
2022-10-16T06:41:23.524Z,5.23
2022-10-16T06:43:53.142Z,4.17
2022-10-16T06:46:22.663Z,4.00
2022-10-16T06:48:50.518Z,5.00
2022-10-16T06:51:20.008Z,4.93
2022-10-16T06:54:05.687Z,4.87
2022-10-16T06:56:34.328Z,6.07
2022-10-16T06:59:04.435Z,4.93
2022-10-16T07:01:32.355Z,4.33
2022-10-16T07:04:00.454Z,3.90
2022-10-16T07:06:29.404Z,3.57
2022-10-16T07:08:57.287Z,4.17
2022-10-16T07:11:26.241Z,3.83
2022-10-16T07:13:56.068Z,4.97
2022-10-16T07:16:27.321Z,4.33
2022-10-16T07:18:59.259Z,4.27
2022-10-16T07:21:29.657Z,4.73
2022-10-16T07:23:58.939Z,3.37
2022-10-16T07:26:28.110Z,4.73
2022-10-16T07:28:56.219Z,4.77
2022-10-16T07:31:25.414Z,3.23
2022-10-16T07:33:53.338Z,3.67
2022-10-16T07:36:22.721Z,3.80
2022-10-16T07:38:52.837Z,3.50
2022-10-16T07:41:23.802Z,3.97
2022-10-16T07:43:53.321Z,4.27
2022-10-16T07:46:22.271Z,5.60
2022-10-16T07:48:51.318Z,3.73
2022-10-16T07:51:21.171Z,3.50
2022-10-16T07:53:49.077Z,3.83
2022-10-16T07:56:18.141Z,3.83
2022-10-16T07:58:46.652Z,4.77
2022-10-16T08:01:16.073Z,5.33
2022-10-16T08:03:44.459Z,5.57
2022-10-16T08:06:13.598Z,4.13
2022-10-16T08:08:41.284Z,6.03
2022-10-16T08:11:09.234Z,3.80
2022-10-16T08:13:36.969Z,3.20
2022-10-16T08:16:08.674Z,3.80
2022-10-16T08:18:37.544Z,6.23
2022-10-16T08:21:06.399Z,3.60
2022-10-16T08:23:36.344Z,3.33
2022-10-16T08:26:07.091Z,3.13
2022-10-16T08:28:35.198Z,3.07
2022-10-16T08:31:10.798Z,3.10
2022-10-16T08:33:38.605Z,2.63
2022-10-16T08:36:07.596Z,3.13
2022-10-16T08:38:36.643Z,3.10
2022-10-16T08:41:19.255Z,2.93
2022-10-16T08:44:04.660Z,3.57
2022-10-16T08:46:48.251Z,2.97
2022-10-16T08:49:18.791Z,2.57
2022-10-16T08:51:47.468Z,2.40
2022-10-16T08:54:29.129Z,2.70
2022-10-16T08:56:57.702Z,2.40
2022-10-16T08:59:25.675Z,2.80
2022-10-16T09:01:54.480Z,3.00
2022-10-16T09:04:56.830Z,2.63
2022-10-16T09:07:35.914Z,2.38
2022-10-16T09:10:21.309Z,2.03
2022-10-16T09:12:57.454Z,4.65
2022-10-16T09:15:33.521Z,2.22
2022-10-16T09:18:11.993Z,2.55
2022-10-16T09:20:47.246Z,2.17
2022-10-16T09:23:21.318Z,4.22
2022-10-16T09:25:52.225Z,2.72
2022-10-16T09:28:20.783Z,4.32
2022-10-16T09:30:49.422Z,3.17
2022-10-16T09:33:18.943Z,2.90
2022-10-16T09:35:49.153Z,2.65
2022-10-16T09:38:29.038Z,2.25
2022-10-16T09:41:03.099Z,2.30
2022-10-16T09:43:37.110Z,3.08
2022-10-16T09:46:06.611Z,2.40
2022-10-16T09:48:39.702Z,2.60
2022-10-16T09:51:18.042Z,3.22
2022-10-16T09:53:47.557Z,2.30
2022-10-16T09:56:25.283Z,3.55
2022-10-16T09:58:54.246Z,2.75
2022-10-16T10:01:24.923Z,2.60
2022-10-16T10:03:53.756Z,3.22
2022-10-16T10:06:26.635Z,2.42
2022-10-16T10:09:03.981Z,2.90
2022-10-16T10:11:58.137Z,2.85
2022-10-16T10:14:30.086Z,2.60
2022-10-16T10:17:11.046Z,2.63
2022-10-16T10:19:44.072Z,3.50
2022-10-16T10:22:28.625Z,2.63
2022-10-16T10:24:58.370Z,2.47
2022-10-16T10:27:38.500Z,2.60
2022-10-16T10:30:12.993Z,3.45
2022-10-16T10:32:49.068Z,2.75
2022-10-16T10:35:19.928Z,2.67
2022-10-16T10:38:05.375Z,2.47
2022-10-16T10:40:45.820Z,2.63
2022-10-16T10:43:26.326Z,5.28
2022-10-16T10:45:58.349Z,3.33
2022-10-16T10:48:52.683Z,3.08
2022-10-16T10:51:29.742Z,2.45
2022-10-16T10:54:09.758Z,4.50
2022-10-16T10:56:47.062Z,2.47
2022-10-16T10:59:34.626Z,2.47
2022-10-16T11:02:06.350Z,3.70
2022-10-16T11:05:00.310Z,2.40
2022-10-16T11:07:31.002Z,3.05
2022-10-16T11:10:04.577Z,2.40
2022-10-16T11:12:36.507Z,3.70
2022-10-16T11:15:15.720Z,2.55
2022-10-16T11:17:46.911Z,3.50
2022-10-16T11:20:21.243Z,3.00
2022-10-16T11:22:53.289Z,5.00
2022-10-16T11:25:25.480Z,2.65
2022-10-16T11:27:58.519Z,2.55
2022-10-16T11:30:29.911Z,2.92
2022-10-16T11:33:24.952Z,2.30
2022-10-16T11:35:58.211Z,2.53
2022-10-16T11:38:33.347Z,5.97
2022-10-16T11:41:04.531Z,2.92
2022-10-16T11:43:38.019Z,2.38
2022-10-16T11:46:14.958Z,2.67
2022-10-16T11:48:48.877Z,3.25
2022-10-16T11:51:23.658Z,4.50
2022-10-16T11:54:00.114Z,3.55
2022-10-16T11:56:29.146Z,2.92
2022-10-16T11:59:03.234Z,2.53
2022-10-16T12:01:38.366Z,2.60
2022-10-16T12:04:21.410Z,2.60
2022-10-16T12:06:54.106Z,3.97
2022-10-16T12:09:26.825Z,2.70
2022-10-16T12:11:54.838Z,2.50
2022-10-16T12:15:14.855Z,2.53
2022-10-16T12:17:36.107Z,2.42
2022-10-16T12:20:21.938Z,2.17
2022-10-16T12:22:51.439Z,2.50
2022-10-16T12:25:24.797Z,2.40
2022-10-16T12:27:58.282Z,4.38
2022-10-16T12:30:30.970Z,3.58
2022-10-16T12:33:05.818Z,2.30
2022-10-16T12:35:36.462Z,2.72
2022-10-16T12:38:19.169Z,2.30
2022-10-16T12:40:49.652Z,2.63
2022-10-16T12:43:39.050Z,2.38
2022-10-16T12:46:24.160Z,2.47
2022-10-16T12:49:06.530Z,2.22
2022-10-16T12:51:38.182Z,2.25
2022-10-16T12:54:14.883Z,2.15
2022-10-16T12:56:52.547Z,4.32
2022-10-16T12:59:31.380Z,3.17
2022-10-16T13:02:25.526Z,2.25
2022-10-16T13:05:08.054Z,2.60
2022-10-16T13:07:50.571Z,2.72
2022-10-16T13:10:28.214Z,4.90
2022-10-16T13:13:19.066Z,4.57
2022-10-16T13:16:00.691Z,6.45
2022-10-16T13:18:34.875Z,2.17
2022-10-16T13:21:14.092Z,2.47
2022-10-16T13:23:50.167Z,2.78
2022-10-16T13:26:28.796Z,2.38
2022-10-16T13:29:02.067Z,2.72
2022-10-16T13:31:30.754Z,2.38
2022-10-16T13:34:00.886Z,2.95
2022-10-16T13:36:31.401Z,3.53
2022-10-16T13:39:09.091Z,2.40
2022-10-16T13:41:36.768Z,2.28
2022-10-16T13:44:04.588Z,3.05
2022-10-16T13:46:35.351Z,5.03
2022-10-16T13:49:05.231Z,2.10
2022-10-16T13:51:35.260Z,2.60
2022-10-16T13:54:02.941Z,2.30
2022-10-16T13:56:32.395Z,2.75
2022-10-16T13:59:00.734Z,2.20
2022-10-16T14:01:32.697Z,1.75
2022-10-16T14:04:06.163Z,1.55
2022-10-16T14:06:36.076Z,4.47
2022-10-16T14:09:07.897Z,1.70
2022-10-16T14:11:40.759Z,1.20
2022-10-16T14:14:13.545Z,1.65
2022-10-16T14:16:44.444Z,2.33
2022-10-16T14:19:19.930Z,3.17
2022-10-16T14:21:48.998Z,3.63
2022-10-16T14:24:27.473Z,4.15
2022-10-16T14:26:57.386Z,3.03
2022-10-16T14:29:26.762Z,2.97
2022-10-16T14:31:59.750Z,3.50
2022-10-16T14:34:29.137Z,2.05
2022-10-16T14:37:01.965Z,4.35
2022-10-16T14:39:30.234Z,4.22
2022-10-16T14:41:59.831Z,2.20
2022-10-16T14:44:32.486Z,6.68
2022-10-16T14:47:08.535Z,2.97
2022-10-16T14:49:36.689Z,2.85
2022-10-16T14:52:11.786Z,3.10
2022-10-16T14:54:39.820Z,2.00
2022-10-16T14:57:07.634Z,2.42
2022-10-16T14:59:38.602Z,2.17
2022-10-16T15:02:20.989Z,1.95
2022-10-16T15:04:48.773Z,3.13
2022-10-16T15:07:17.907Z,2.50
2022-10-16T15:09:49.019Z,2.55
2022-10-16T15:12:17.363Z,2.77
2022-10-16T15:14:45.431Z,3.85
2022-10-16T15:17:14.655Z,2.63
2022-10-16T15:19:44.316Z,3.27
2022-10-16T15:22:13.591Z,2.30
2022-10-16T15:24:44.798Z,2.27
2022-10-16T15:27:12.429Z,3.07
2022-10-16T15:29:40.130Z,3.47
2022-10-16T15:32:07.772Z,2.80
2022-10-16T15:34:35.437Z,2.70
2022-10-16T15:37:05.159Z,2.33
2022-10-16T15:39:33.636Z,4.93
2022-10-16T15:42:06.805Z,4.00
2022-10-16T15:44:34.490Z,2.47
2022-10-16T15:47:02.452Z,4.87
2022-10-16T15:49:30.129Z,2.73
2022-10-16T15:51:58.578Z,4.20
2022-10-16T15:54:26.233Z,4.83
2022-10-16T15:56:53.893Z,2.20
2022-10-16T15:59:23.358Z,3.93
2022-10-16T16:01:51.043Z,3.33
2022-10-16T16:04:39.185Z,2.70
2022-10-16T16:07:09.903Z,4.00
2022-10-16T16:09:37.616Z,2.90
2022-10-16T16:12:05.691Z,3.03
2022-10-16T16:14:35.198Z,3.00
2022-10-16T16:17:03.005Z,7.50
2022-10-16T16:19:31.023Z,5.37
2022-10-16T16:21:58.998Z,5.07
2022-10-16T16:24:26.688Z,4.37
2022-10-16T16:26:54.370Z,3.33
2022-10-16T16:29:22.066Z,5.60
2022-10-16T16:31:51.085Z,4.63
2022-10-16T16:34:19.725Z,2.87
2022-10-16T16:36:47.427Z,7.90
2022-10-16T16:39:15.086Z,5.00
2022-10-16T16:41:42.923Z,8.70
2022-10-16T16:44:12.552Z,2.60
2022-10-16T16:46:41.050Z,4.13
2022-10-16T16:49:11.729Z,6.47
2022-10-16T16:51:40.779Z,3.73
2022-10-16T16:54:09.194Z,5.20
2022-10-16T16:56:40.474Z,6.17
2022-10-16T16:59:08.149Z,5.37
2022-10-16T17:01:35.948Z,5.47
2022-10-16T17:04:03.617Z,6.10
2022-10-16T17:06:32.778Z,4.60
2022-10-16T17:09:03.706Z,5.47
2022-10-16T17:11:31.944Z,8.30
2022-10-16T17:14:01.132Z,9.50
2022-10-16T17:16:31.223Z,8.37
2022-10-16T17:19:01.669Z,6.17
2022-10-16T17:21:30.774Z,6.80
2022-10-16T17:24:00.895Z,9.80
2022-10-16T17:26:29.496Z,5.80
2022-10-16T17:28:59.600Z,10.00
2022-10-16T17:31:29.405Z,5.23
2022-10-16T17:33:57.521Z,7.67
2022-10-16T17:36:25.528Z,6.13
2022-10-16T17:38:53.237Z,5.40
2022-10-16T17:41:24.626Z,9.17
2022-10-16T17:43:53.552Z,4.80
2022-10-16T17:46:24.388Z,4.63
2022-10-16T17:48:54.786Z,6.90
2022-10-16T17:51:24.141Z,9.13
2022-10-16T17:53:53.255Z,7.97
2022-10-16T17:56:22.651Z,7.07
2022-10-16T17:58:51.742Z,6.60
2022-10-16T18:01:22.312Z,6.53
2022-10-16T18:03:51.865Z,6.37
2022-10-16T18:09:14.977Z,6.27
2022-10-16T18:11:43.991Z,6.37
2022-10-16T18:14:14.278Z,5.83
2022-10-16T18:16:42.211Z,9.13
2022-10-16T18:19:10.865Z,8.23
2022-10-16T18:21:38.516Z,9.13
2022-10-16T18:24:06.535Z,10.37
2022-10-16T18:26:34.187Z,7.40
2022-10-16T18:29:04.874Z,7.80
2022-10-16T18:31:33.471Z,5.83
2022-10-16T18:34:01.637Z,5.97
2022-10-16T18:36:30.786Z,6.60
2022-10-16T18:38:58.939Z,9.57
2022-10-16T18:41:28.442Z,7.83
2022-10-16T18:43:56.722Z,8.43
2022-10-16T18:46:27.372Z,7.97
2022-10-16T18:48:56.819Z,7.93
2022-10-16T18:51:26.850Z,7.03
2022-10-16T18:53:56.392Z,7.00
2022-10-16T18:56:25.597Z,7.43
2022-10-16T18:58:54.503Z,7.50
2022-10-16T19:01:24.777Z,8.93
2022-10-16T19:03:57.775Z,10.77
2022-10-16T19:06:26.522Z,12.17
2022-10-16T19:08:55.029Z,11.87
2022-10-16T19:11:24.619Z,15.20
2022-10-16T19:13:54.973Z,14.67
2022-10-16T19:16:25.547Z,13.90
2022-10-16T19:18:56.932Z,15.13
2022-10-16T19:21:25.431Z,12.03
2022-10-16T19:23:53.769Z,12.03
2022-10-16T19:26:22.848Z,11.73
2022-10-16T19:28:50.936Z,9.90
2022-10-16T19:31:21.250Z,10.87
2022-10-16T19:33:53.196Z,11.33
2022-10-16T19:36:24.457Z,11.33
2022-10-16T19:38:55.349Z,14.27
2022-10-16T19:41:24.597Z,12.53
2022-10-16T19:43:53.131Z,14.47
2022-10-16T19:46:23.168Z,12.57
2022-10-16T19:48:54.639Z,15.30
2022-10-16T19:51:24.695Z,12.27
2022-10-16T19:53:55.672Z,11.70
2022-10-16T19:56:25.045Z,11.53
2022-10-16T19:58:54.963Z,11.90
2022-10-16T20:01:23.073Z,13.47
2022-10-16T20:03:51.243Z,13.23
2022-10-16T20:06:19.956Z,13.77
2022-10-16T20:08:51.518Z,13.90
2022-10-16T20:11:20.998Z,13.43
2022-10-16T20:13:48.920Z,13.20
2022-10-16T20:16:19.057Z,13.77
2022-10-16T20:18:47.944Z,14.10
2022-10-16T20:21:18.395Z,13.33
2022-10-16T20:23:47.184Z,13.30
2022-10-16T20:26:16.647Z,13.30
2022-10-16T20:28:44.996Z,13.87
2022-10-16T20:31:18.250Z,13.53
2022-10-16T20:33:46.343Z,17.97
2022-10-16T20:36:15.465Z,15.87
2022-10-16T20:38:43.798Z,14.60
2022-10-16T20:41:12.210Z,13.90
2022-10-16T20:46:19.486Z,16.27
2022-10-16T20:48:47.762Z,16.07
2022-10-16T20:51:17.642Z,14.47
2022-10-16T20:53:46.399Z,11.07
2022-10-16T20:56:15.842Z,12.50
2022-10-16T20:58:45.196Z,13.13
2022-10-16T21:01:15.126Z,11.13
2022-10-16T21:03:43.046Z,11.30
2022-10-16T21:06:11.940Z,11.93
2022-10-16T21:08:42.102Z,13.90
2022-10-16T21:11:13.941Z,12.80
2022-10-16T21:13:42.066Z,14.97
2022-10-16T21:16:12.814Z,13.97
2022-10-16T21:18:44.236Z,12.90
2022-10-16T21:21:19.526Z,13.37
2022-10-16T21:23:47.296Z,12.30
2022-10-16T21:26:14.962Z,12.77
2022-10-16T21:28:42.862Z,13.10
2022-10-16T21:31:18.865Z,12.77
2022-10-16T21:33:46.629Z,11.63
2022-10-16T21:36:15.681Z,11.90
2022-10-16T21:38:43.371Z,12.63
2022-10-16T21:41:16.686Z,13.23
2022-10-16T21:43:44.665Z,12.43
2022-10-16T21:46:12.741Z,13.00
2022-10-16T21:48:42.763Z,12.83
2022-10-16T21:51:11.065Z,9.93
2022-10-16T21:53:39.191Z,9.37
2022-10-16T21:56:12.915Z,9.70
2022-10-16T21:58:40.684Z,8.87
2022-10-16T22:01:09.136Z,9.83
2022-10-16T22:03:37.047Z,10.00
2022-10-16T22:06:07.869Z,9.77
2022-10-16T22:08:36.401Z,9.77
2022-10-16T22:11:05.444Z,10.00
2022-10-16T22:13:33.196Z,9.27
2022-10-16T22:16:01.074Z,37.90
2022-10-16T22:18:29.156Z,5.97
2022-10-16T22:20:56.875Z,21.77
2022-10-16T22:23:26.455Z,4.70
2022-10-16T22:25:59.504Z,5.97
2022-10-16T22:28:27.389Z,5.03
2022-10-16T22:30:55.082Z,5.43
2022-10-16T22:33:22.816Z,5.60
2022-10-16T22:35:50.502Z,5.93
2022-10-16T22:38:18.186Z,8.47
2022-10-16T22:40:47.203Z,6.67
2022-10-16T22:43:14.904Z,7.47
2022-10-16T22:45:42.546Z,9.43
2022-10-16T22:48:10.219Z,8.63
2022-10-16T22:50:37.860Z,9.27
2022-10-16T22:53:05.561Z,9.77
2022-10-16T22:55:33.190Z,11.13
2022-10-16T22:58:03.642Z,10.50
2022-10-16T23:00:31.317Z,7.27
2022-10-16T23:02:59.034Z,11.27
2022-10-16T23:05:26.698Z,7.30
2022-10-16T23:07:54.556Z,8.33
2022-10-16T23:10:27.516Z,16.07
2022-10-16T23:12:55.391Z,15.10
2022-10-16T23:15:24.679Z,16.67
2022-10-16T23:17:52.796Z,8.03
2022-10-16T23:20:20.656Z,12.43
2022-10-16T23:22:48.495Z,27.57
2022-10-16T23:25:16.480Z,7.43
2022-10-16T23:27:44.394Z,8.87
2022-10-16T23:30:12.563Z,9.10
2022-10-16T23:32:42.466Z,10.60
2022-10-16T23:35:10.768Z,23.17
2022-10-16T23:37:38.652Z,13.40
2022-10-16T23:40:07.441Z,9.50
2022-10-16T23:42:35.327Z,9.83
2022-10-16T23:45:03.228Z,26.07
2022-10-16T23:47:31.265Z,16.67
2022-10-16T23:50:00.655Z,8.97
2022-10-16T23:52:28.522Z,6.87
2022-10-16T23:54:56.389Z,48.67
2022-10-16T23:57:24.288Z,32.80
2022-10-16T23:59:52.232Z,55.03
